Time;durP1;ratioP1;P1;durP2;ratioP2;P2;SDS_P1;SDS_P2;PMS_P1;PMS_P2;Temp;Humidity;BMP_temperature;BMP_pressure;BME280_temperature;BME280_humidity;BME280_pressure;Samples;Min_cycle;Max_cycle;Signal;HPM_P1;HPM_P2
2023/04/17 09:16:53;;;;;;;6.50;3.30;;;;;;;14.38;49.78;100535.67;107651;1275;69470;-76
2023/04/17 09:19:21;;;;;;;8.40;3.30;;;;;;;14.58;49.82;100534.86;108730;1263;71487;-77
2023/04/17 09:21:47;;;;;;;3.90;3.10;;;;;;;14.71;48.06;100540.78;108797;1263;59143;-77
2023/04/17 09:24:14;;;;;;;10.60;3.20;;;;;;;14.74;46.61;100542.84;108778;1263;59986;-77
2023/04/17 09:26:41;;;;;;;3.90;3.30;;;;;;;14.75;46.38;100538.66;109551;1252;72931;-76
2023/04/17 09:29:09;;;;;;;7.70;3.50;;;;;;;14.76;46.61;100535.45;109630;1252;67964;-77
2023/04/17 09:31:38;;;;;;;6.60;3.20;;;;;;;14.83;46.51;100534.31;109206;1252;71719;-77
2023/04/17 09:34:10;;;;;;;5.10;3.20;;;;;;;14.87;46.63;100534.39;109518;1252;59080;-76
2023/04/17 09:36:38;;;;;;;7.00;3.40;;;;;;;14.80;46.39;100540.78;109393;1252;60423;-78
2023/04/17 09:39:25;;;;;;;8.30;3.40;;;;;;;14.57;47.05;100540.16;108927;1253;72734;-73
2023/04/17 09:42:02;;;;;;;5.20;3.90;;;;;;;14.34;47.86;100536.83;108278;1253;68627;-73
2023/04/17 09:44:30;;;;;;;7.10;3.80;;;;;;;14.21;48.58;100539.21;108490;1252;72935;-75
2023/04/17 09:46:58;;;;;;;6.40;3.40;;;;;;;14.14;48.97;100538.88;108078;1253;60321;-71
2023/04/17 09:49:32;;;;;;;6.20;3.30;;;;;;;14.05;49.06;100533.73;108107;1252;60309;-74
2023/04/17 09:51:59;;;;;;;8.20;4.00;;;;;;;13.93;49.54;100540.29;107641;1256;74042;-74
2023/04/17 09:54:30;;;;;;;4.40;3.80;;;;;;;13.85;49.79;100539.92;108015;1253;68502;-74
2023/04/17 09:56:58;;;;;;;7.20;3.70;;;;;;;13.79;49.94;100538.65;108187;1252;71657;-75
2023/04/17 09:59:24;;;;;;;8.50;3.80;;;;;;;13.73;50.23;100535.02;107955;1253;60359;-73
2023/04/17 10:01:52;;;;;;;5.10;3.80;;;;;;;13.70;50.67;100537.70;107991;1253;60368;-75
2023/04/17 10:04:20;;;;;;;5.30;3.80;;;;;;;13.70;50.79;100537.90;108015;1253;71868;-74
2023/04/17 10:06:48;;;;;;;5.30;3.80;;;;;;;13.68;50.92;100534.16;107886;1252;70380;-74
2023/04/17 10:09:15;;;;;;;8.50;4.10;;;;;;;13.68;51.06;100534.40;107450;1253;72171;-74
2023/04/17 10:11:44;;;;;;;7.30;4.00;;;;;;;13.68;50.69;100536.53;107515;1253;60345;-73
2023/04/17 10:14:38;;;;;;;5.00;3.10;;;;;;;13.58;50.00;100537.45;107602;1258;60448;-74
2023/04/17 10:17:22;;;;;;;6.40;4.00;;;;;;;13.41;50.09;100531.45;107468;1253;73875;-75
2023/04/17 10:19:49;;;;;;;8.30;3.40;;;;;;;13.32;50.64;100533.09;107318;1256;70289;-73
2023/04/17 10:22:18;;;;;;;4.10;3.40;;;;;;;13.29;50.48;100534.36;107192;1253;72507;-74
2023/04/17 10:25:11;;;;;;;9.80;3.60;;;;;;;13.21;50.40;100531.67;107507;1256;60514;-74
2023/04/17 10:27:41;;;;;;;5.50;3.40;;;;;;;13.04;50.69;100531.27;107921;1252;60521;-74
2023/04/17 10:30:09;;;;;;;5.50;3.60;;;;;;;12.96;51.17;100528.19;107655;1253;74188;-76
2023/04/17 10:32:38;;;;;;;5.30;3.20;;;;;;;12.96;51.37;100528.39;108147;1251;68975;-75
2023/04/17 10:35:18;;;;;;;6.70;3.40;;;;;;;12.96;51.51;100527.71;108233;1252;72844;-74
2023/04/17 10:37:51;;;;;;;6.30;3.60;;;;;;;12.91;51.53;100529.11;108065;1251;60483;-76
2023/04/17 10:40:26;;;;;;;7.20;3.40;;;;;;;12.84;51.65;100526.94;108463;1253;60419;-76
2023/04/17 10:43:05;;;;;;;6.10;3.40;;;;;;;12.79;51.91;100531.61;108797;1253;73698;-75
2023/04/17 10:45:59;;;;;;;6.00;3.50;;;;;;;12.78;52.20;100526.91;108863;1253;67967;-75
2023/04/17 10:48:49;;;;;;;5.50;3.40;;;;;;;12.78;52.24;100525.15;108855;1251;71706;-76
2023/04/17 10:51:27;;;;;;;5.60;3.40;;;;;;;12.82;52.42;100522.80;109005;1251;60491;-76
2023/04/17 10:53:55;;;;;;;4.30;3.20;;;;;;;12.90;52.83;100527.11;108705;1253;59424;-74
2023/04/17 10:56:38;;;;;;;4.70;2.80;;;;;;;12.98;52.75;100525.73;109031;1252;73314;-76
2023/04/17 10:59:08;;;;;;;5.90;3.30;;;;;;;13.14;52.80;100526.14;108926;1251;68477;-75
2023/04/17 11:01:47;;;;;;;4.20;2.90;;;;;;;13.29;51.68;100523.16;108767;1252;70234;-77
2023/04/17 11:04:24;;;;;;;4.90;3.30;;;;;;;13.38;51.51;100516.63;108484;1254;59234;-75
2023/04/17 11:06:54;;;;;;;4.10;2.90;;;;;;;13.52;51.67;100520.06;108741;1251;60399;-78
2023/04/17 11:09:26;;;;;;;4.80;3.10;;;;;;;13.69;51.60;100513.44;108750;1260;74780;-77
2023/04/17 11:11:53;;;;;;;5.20;3.20;;;;;;;13.89;52.14;100512.25;108779;1251;70142;-78
2023/04/17 11:14:21;;;;;;;5.80;3.20;;;;;;;14.18;51.77;100514.04;108887;1252;71721;-78
2023/04/17 11:16:49;;;;;;;5.00;3.50;;;;;;;14.51;51.35;100510.73;109029;1251;58958;-77
2023/04/17 11:19:23;;;;;;;4.70;3.50;;;;;;;14.84;50.98;100507.66;109139;1251;59405;-78
2023/04/17 11:21:51;;;;;;;4.10;3.00;;;;;;;15.32;50.38;100499.73;109097;1253;72905;-78
2023/04/17 11:24:28;;;;;;;6.80;3.40;;;;;;;15.95;49.10;100496.22;109103;1251;69418;-77
2023/04/17 11:26:58;;;;;;;3.40;3.10;;;;;;;16.70;47.21;100488.87;108905;1251;72456;-77
2023/04/17 11:29:26;;;;;;;7.40;3.30;;;;;;;17.36;45.66;100480.30;108880;1251;60531;-78
2023/04/17 11:31:55;;;;;;;3.90;3.40;;;;;;;18.04;45.83;100481.34;109011;1253;60494;-76
2023/04/17 11:34:21;;;;;;;4.90;2.70;;;;;;;18.89;44.91;100481.69;109075;1253;72555;-76
2023/04/17 11:36:49;;;;;;;4.10;2.60;;;;;;;19.75;43.09;100471.36;108949;1251;69075;-79
2023/04/17 11:39:20;;;;;;;4.90;3.20;;;;;;;20.49;41.71;100467.31;109053;1251;71664;-78
2023/04/17 11:41:46;;;;;;;6.20;3.00;;;;;;;21.12;41.10;100465.17;109068;1251;59988;-77
2023/04/17 11:44:14;;;;;;;5.90;2.80;;;;;;;21.75;40.45;100453.02;109222;1251;58996;-76
2023/04/17 11:46:40;;;;;;;4.90;2.80;;;;;;;22.33;39.50;100457.52;109382;1251;72649;-78
2023/04/17 11:49:07;;;;;;;5.10;3.10;;;;;;;22.91;38.47;100451.66;109506;1251;69292;-79
2023/04/17 11:51:35;;;;;;;5.10;3.00;;;;;;;23.49;37.16;100442.83;109501;1252;71270;-78
2023/04/17 11:54:01;;;;;;;6.70;3.20;;;;;;;23.75;36.49;100435.27;109362;1253;59345;-80
2023/04/17 11:56:29;;;;;;;4.30;3.10;;;;;;;23.91;36.08;100435.27;109229;1251;60459;-79
2023/04/17 11:58:57;;;;;;;4.60;2.80;;;;;;;24.00;36.13;100428.67;109155;1251;71501;-79
2023/04/17 12:01:25;;;;;;;3.50;3.00;;;;;;;24.15;35.88;100424.08;108924;1251;70187;-77
2023/04/17 12:03:55;;;;;;;7.00;2.90;;;;;;;24.26;35.78;100421.73;109056;1253;72363;-76
2023/04/17 12:06:24;;;;;;;3.00;2.70;;;;;;;24.18;35.15;100427.02;109347;1251;60323;-77
2023/04/17 12:08:52;;;;;;;5.00;2.70;;;;;;;23.92;34.34;100422.64;109576;1253;59154;-79
2023/04/17 12:11:43;;;;;;;4.30;2.70;;;;;;;23.66;33.82;100420.54;109667;1251;73986;-78
2023/04/17 12:14:58;;;;;;;5.30;2.80;;;;;;;23.34;33.79;100419.67;109000;1256;69263;-77
2023/04/17 12:17:25;;;;;;;3.00;2.40;;;;;;;23.21;33.20;100422.14;109179;1252;72419;-76
2023/04/17 12:19:52;;;;;;;3.30;2.40;;;;;;;22.90;32.87;100421.92;109293;1254;58740;-77
2023/04/17 12:22:19;;;;;;;4.30;2.50;;;;;;;22.46;32.95;100424.04;109154;1253;60419;-77
2023/04/17 12:24:46;;;;;;;3.70;2.50;;;;;;;21.98;33.05;100421.05;108827;1253;72721;-76
2023/04/17 12:27:12;;;;;;;2.70;2.10;;;;;;;21.53;33.39;100425.63;108861;1251;70282;-78
2023/04/17 12:29:39;;;;;;;3.60;2.00;;;;;;;21.15;33.40;100425.22;108884;1253;70547;-76
2023/04/17 12:32:11;;;;;;;3.70;2.20;;;;;;;20.72;33.75;100424.30;109092;1252;59201;-78
2023/04/17 12:34:38;;;;;;;3.30;2.30;;;;;;;20.40;34.31;100422.59;109161;1252;59386;-75
2023/04/17 12:37:04;;;;;;;3.20;2.20;;;;;;;20.23;34.48;100421.23;108485;1253;73829;-76
2023/04/17 12:39:32;;;;;;;5.70;2.70;;;;;;;20.18;34.89;100420.54;109042;1251;69455;-76
2023/04/17 12:41:59;;;;;;;5.80;2.50;;;;;;;20.20;35.19;100422.11;108961;1251;70844;-76
2023/04/17 12:44:25;;;;;;;3.90;2.60;;;;;;;20.27;35.41;100420.71;109063;1256;60311;-76
2023/04/17 12:46:52;;;;;;;3.80;2.60;;;;;;;20.25;35.57;100419.98;109091;1251;59001;-77
2023/04/17 12:49:19;;;;;;;4.80;2.40;;;;;;;20.10;35.61;100417.52;108880;1251;71927;-75
2023/04/17 12:51:46;;;;;;;2.80;2.10;;;;;;;19.96;35.79;100420.18;108472;1251;70323;-74
2023/04/17 12:54:12;;;;;;;2.50;2.10;;;;;;;19.77;35.34;100417.63;108416;1251;72503;-75
2023/04/17 12:56:39;;;;;;;2.50;2.10;;;;;;;19.50;35.30;100418.21;108278;1251;59388;-75
2023/04/17 12:59:06;;;;;;;3.00;2.30;;;;;;;19.18;35.14;100417.30;108324;1251;59340;-75
2023/04/17 13:01:33;;;;;;;3.80;2.30;;;;;;;18.88;35.60;100415.89;108011;1251;263388;-73
2023/04/17 13:05:15;;;;;;;6.70;2.60;;;;;;;18.60;36.02;100414.16;104784;1290;600222;-76
2023/04/17 13:07:45;;;;;;;2.40;2.20;;;;;;;18.49;36.15;100415.92;107618;1254;60575;-75
2023/04/17 13:10:13;;;;;;;2.90;2.10;;;;;;;18.41;35.99;100409.66;107967;1254;59443;-76
2023/04/17 13:12:41;;;;;;;2.30;2.10;;;;;;;18.35;36.18;100409.73;107722;1254;73190;-74
2023/04/17 13:15:12;;;;;;;3.40;2.00;;;;;;;18.27;36.21;100413.27;107839;1254;70517;-76
2023/04/17 13:17:41;;;;;;;5.20;2.10;;;;;;;18.17;36.44;100411.70;107895;1253;70506;-74
2023/04/17 13:20:10;;;;;;;2.30;2.10;;;;;;;18.06;36.59;100410.13;107748;1253;59433;-75
2023/04/17 13:22:41;;;;;;;3.20;2.20;;;;;;;17.96;36.93;100410.30;107928;1253;59229;-74
2023/04/17 13:25:09;;;;;;;2.90;2.40;;;;;;;17.93;37.25;100412.93;107884;1253;71915;-75
2023/04/17 13:27:37;;;;;;;4.00;2.70;;;;;;;17.88;37.56;100412.65;107936;1250;70295;-76
2023/04/17 13:30:06;;;;;;;3.20;1.90;;;;;;;17.78;37.69;100411.88;107661;1250;71378;-74
2023/04/17 13:32:35;;;;;;;5.50;2.20;;;;;;;17.64;37.67;100413.00;107631;1251;59589;-75
2023/04/17 13:35:04;;;;;;;4.60;2.10;;;;;;;17.51;37.47;100411.30;107568;1253;59731;-74
2023/04/17 13:37:32;;;;;;;3.10;2.10;;;;;;;17.38;37.45;100412.59;107624;1250;71233;-74
2023/04/17 13:40:03;;;;;;;2.70;2.00;;;;;;;17.27;37.44;100418.29;107853;1252;68641;-74
2023/04/17 13:42:32;;;;;;;5.30;2.10;;;;;;;17.16;37.53;100418.30;107510;1253;71827;-73
2023/04/17 13:45:00;;;;;;;3.00;1.90;;;;;;;17.05;37.58;100419.58;107427;1252;60312;-74
2023/04/17 13:47:29;;;;;;;3.30;1.80;;;;;;;16.93;37.74;100416.13;107296;1254;61045;-75
2023/04/17 13:49:57;;;;;;;2.40;2.20;;;;;;;16.76;38.33;100414.44;107318;1251;72811;-75
2023/04/17 13:52:25;;;;;;;3.10;2.30;;;;;;;16.64;38.73;100416.35;107270;1255;71297;-74
2023/04/17 13:54:53;;;;;;;3.60;2.20;;;;;;;16.56;39.16;100413.52;107120;1253;70570;-74
2023/04/17 13:57:21;;;;;;;3.50;2.00;;;;;;;16.49;39.26;100416.34;106941;1255;59632;-76
2023/04/17 13:59:49;;;;;;;5.50;1.80;;;;;;;16.41;39.17;100413.41;106913;1257;59605;-73
2023/04/17 14:02:17;;;;;;;2.90;2.00;;;;;;;16.31;39.28;100414.42;106714;1255;72500;-73
2023/04/17 14:04:45;;;;;;;3.90;1.80;;;;;;;16.22;39.13;100411.30;106475;1251;69758;-73
2023/04/17 14:07:14;;;;;;;2.60;1.70;;;;;;;16.13;39.38;100413.50;106723;1250;71606;-74
2023/04/17 14:09:42;;;;;;;2.40;1.90;;;;;;;16.04;39.41;100412.20;106495;1253;59801;-74
2023/04/17 14:12:15;;;;;;;6.50;2.00;;;;;;;16.00;39.49;100413.11;106553;1254;60634;-74
2023/04/17 14:14:43;;;;;;;2.20;1.80;;;;;;;15.94;39.17;100411.37;106503;1256;71534;-73
2023/04/17 14:17:11;;;;;;;2.30;2.00;;;;;;;15.84;39.17;100411.58;105846;1255;71181;-74
2023/04/17 14:19:39;;;;;;;3.70;2.40;;;;;;;15.75;39.02;100407.40;106170;1256;72398;-72
2023/04/17 14:22:08;;;;;;;2.60;1.80;;;;;;;15.67;39.27;100406.86;106095;1250;60534;-74
2023/04/17 14:24:36;;;;;;;4.80;2.10;;;;;;;15.61;39.48;100404.27;106295;1250;59666;-73
2023/04/17 14:27:04;;;;;;;2.40;2.10;;;;;;;15.54;39.57;100407.72;105670;1259;72828;-71
2023/04/17 14:29:32;;;;;;;3.80;2.20;;;;;;;15.48;39.77;100406.67;106186;1256;70612;-73
2023/04/17 14:32:01;;;;;;;5.40;2.40;;;;;;;15.44;39.69;100408.02;106183;1250;72837;-72
2023/04/17 14:34:29;;;;;;;2.90;2.00;;;;;;;15.41;39.74;100406.21;106166;1256;59701;-73
2023/04/17 14:36:57;;;;;;;3.60;2.30;;;;;;;15.36;39.81;100408.23;106170;1250;60373;-73
2023/04/17 14:39:25;;;;;;;3.90;2.30;;;;;;;15.29;40.01;100405.46;106120;1251;72294;-72
2023/04/17 14:41:56;;;;;;;2.80;1.90;;;;;;;15.21;40.15;100402.08;106153;1250;70423;-72
2023/04/17 14:44:29;;;;;;;3.70;2.90;;;;;;;15.08;40.57;100393.65;105982;1256;73910;-72
2023/04/17 14:46:57;;;;;;;3.50;2.40;;;;;;;15.06;40.91;100398.89;106028;1250;59885;-72
2023/04/17 14:49:25;;;;;;;7.10;2.60;;;;;;;15.03;41.09;100398.59;106208;1251;60650;-72
2023/04/17 14:51:53;;;;;;;6.60;2.70;;;;;;;15.02;41.39;100393.35;106207;1256;73197;-73
2023/04/17 14:54:21;;;;;;;5.40;2.20;;;;;;;15.03;41.68;100396.29;106167;1254;71421;-72
2023/04/17 14:56:49;;;;;;;5.60;2.10;;;;;;;15.00;41.50;100392.48;105872;1250;72713;-74
2023/04/17 14:59:17;;;;;;;3.80;2.00;;;;;;;14.93;41.89;100390.14;106082;1251;61373;-73
2023/04/17 15:01:45;;;;;;;5.40;2.50;;;;;;;14.88;42.28;100386.48;106106;1251;59660;-72
2023/04/17 15:04:14;;;;;;;3.80;2.00;;;;;;;14.81;42.69;100390.72;106149;1251;73655;-74
2023/04/17 15:06:42;;;;;;;2.80;2.20;;;;;;;14.73;42.84;100389.91;106051;1250;71407;-74
2023/04/17 15:09:11;;;;;;;7.40;2.40;;;;;;;14.68;43.03;100387.59;106278;1256;72271;-73
2023/04/17 15:11:39;;;;;;;3.10;2.10;;;;;;;14.62;43.38;100384.85;106244;1254;60283;-73
2023/04/17 15:14:07;;;;;;;3.20;1.90;;;;;;;14.56;43.55;100380.90;106244;1250;59749;-75
2023/04/17 15:16:36;;;;;;;2.80;2.10;;;;;;;14.47;43.72;100382.06;106044;1251;72445;-73
2023/04/17 15:19:04;;;;;;;6.20;2.10;;;;;;;14.42;43.94;100382.85;106169;1250;70070;-73
2023/04/17 15:21:33;;;;;;;3.20;2.20;;;;;;;14.38;44.16;100383.12;106015;1256;73388;-71
2023/04/17 15:24:05;;;;;;;2.30;2.10;;;;;;;14.34;44.27;100379.26;106118;1256;59678;-70
2023/04/17 15:26:34;;;;;;;6.30;2.10;;;;;;;14.31;44.40;100382.98;106139;1257;61412;-74
2023/04/17 15:29:02;;;;;;;2.90;1.90;;;;;;;14.25;44.20;100378.71;106219;1259;72423;-74
2023/04/17 15:31:33;;;;;;;2.80;2.00;;;;;;;14.16;44.07;100376.91;106517;1256;71029;-73
2023/04/17 15:34:01;;;;;;;3.30;2.70;;;;;;;14.08;44.10;100379.29;106468;1256;72445;-75
2023/04/17 15:36:32;;;;;;;3.00;2.00;;;;;;;14.03;44.19;100379.52;106487;1250;60700;-76
2023/04/17 15:39:01;;;;;;;3.20;2.30;;;;;;;13.97;44.31;100379.98;106482;1250;61266;-72
2023/04/17 15:41:29;;;;;;;4.00;2.00;;;;;;;13.93;44.41;100380.96;106480;1254;74021;-73
2023/04/17 15:43:57;;;;;;;2.80;2.00;;;;;;;13.91;44.42;100380.70;106600;1257;69806;-73
2023/04/17 15:46:25;;;;;;;6.10;2.40;;;;;;;13.87;44.44;100384.63;106258;1253;72712;-72
2023/04/17 15:48:53;;;;;;;4.90;2.30;;;;;;;13.84;44.53;100386.15;106319;1254;59605;-73
2023/04/17 15:51:36;;;;;;;5.70;2.90;;;;;;;13.78;44.77;100386.48;106367;1256;61565;-73
2023/04/17 15:54:10;;;;;;;4.20;2.40;;;;;;;13.72;44.86;100385.86;106439;1256;74007;-72
2023/04/17 15:56:39;;;;;;;3.10;2.10;;;;;;;13.68;44.70;100387.36;106561;1254;69369;-74
2023/04/17 15:59:07;;;;;;;2.70;1.90;;;;;;;13.63;44.88;100384.77;106765;1251;70811;-74
2023/04/17 16:01:35;;;;;;;2.70;2.20;;;;;;;13.56;44.89;100386.19;106914;1252;60036;-73
2023/04/17 16:04:04;;;;;;;4.20;2.30;;;;;;;13.50;45.00;100385.64;106785;1256;59522;-73
2023/04/17 16:06:34;;;;;;;5.30;1.80;;;;;;;13.44;45.11;100390.86;106756;1255;73270;-73
2023/04/17 16:09:02;;;;;;;4.60;2.10;;;;;;;13.39;45.36;100392.30;106718;1253;71227;-73
2023/04/17 16:11:31;;;;;;;4.00;1.90;;;;;;;13.35;45.44;100391.35;106931;1255;71793;-75
2023/04/17 16:13:59;;;;;;;3.00;2.20;;;;;;;13.30;45.68;100388.35;106371;1251;59730;-73
2023/04/17 16:16:28;;;;;;;2.30;1.80;;;;;;;13.24;45.77;100387.73;106446;1250;61095;-73
2023/04/17 16:18:56;;;;;;;5.10;2.30;;;;;;;13.22;46.01;100389.83;106524;1257;73145;-72
2023/04/17 16:21:25;;;;;;;5.80;2.30;;;;;;;13.16;46.13;100395.89;106550;1256;70688;-71
2023/04/17 16:23:54;;;;;;;2.40;2.00;;;;;;;13.09;46.26;100390.63;106439;1253;74211;-73
2023/04/17 16:26:22;;;;;;;2.80;2.00;;;;;;;13.04;46.59;100397.20;106424;1252;59838;-73
2023/04/17 16:28:50;;;;;;;3.80;2.20;;;;;;;12.98;46.62;100397.67;106480;1250;60431;-74
2023/04/17 16:31:20;;;;;;;6.10;2.80;;;;;;;12.93;46.84;100399.64;106618;1251;74283;-73
2023/04/17 16:33:48;;;;;;;3.60;2.50;;;;;;;12.88;46.90;100401.11;106638;1254;69486;-74
2023/04/17 16:36:16;;;;;;;3.90;2.30;;;;;;;12.82;46.98;100401.95;106307;1257;73611;-74
2023/04/17 16:38:44;;;;;;;5.10;2.20;;;;;;;12.76;47.09;100399.41;106519;1250;60094;-74
2023/04/17 16:41:12;;;;;;;8.00;3.00;;;;;;;12.70;47.26;100400.01;106455;1252;59576;-71
2023/04/17 16:43:41;;;;;;;4.90;2.60;;;;;;;12.64;47.36;100401.57;106588;1253;74731;-72
2023/04/17 16:46:13;;;;;;;5.30;3.40;;;;;;;12.58;47.59;100401.29;109330;1251;68494;-71
2023/04/17 16:48:55;;;;;;;4.80;3.00;;;;;;;12.52;47.60;100401.98;109044;1251;70603;-74
2023/04/17 16:51:23;;;;;;;8.10;3.00;;;;;;;12.48;47.76;100406.84;108580;1251;59320;-72
2023/04/17 16:53:51;;;;;;;4.20;2.30;;;;;;;12.43;47.77;100404.90;108762;1250;59919;-70
2023/04/17 16:56:19;;;;;;;4.30;2.50;;;;;;;12.37;48.06;100405.99;108464;1250;71860;-72
2023/04/17 16:58:48;;;;;;;3.40;2.30;;;;;;;12.32;48.10;100406.39;108197;1256;71496;-72
2023/04/17 17:01:16;;;;;;;5.30;2.50;;;;;;;12.27;48.26;100405.91;108715;1251;72320;-72
2023/04/17 17:03:45;;;;;;;5.40;2.60;;;;;;;12.21;48.56;100407.02;108522;1254;60021;-74
2023/04/17 17:06:14;;;;;;;4.40;2.50;;;;;;;12.16;48.75;100402.27;108489;1254;59601;-72
2023/04/17 17:08:45;;;;;;;4.70;2.50;;;;;;;12.10;48.73;100405.65;108806;1252;71776;-72
2023/04/17 17:11:17;;;;;;;5.10;2.90;;;;;;;12.05;49.15;100408.57;108950;1251;69150;-72
2023/04/17 17:13:47;;;;;;;5.40;2.40;;;;;;;12.00;49.19;100407.09;108759;1254;70867;-72
2023/04/17 17:16:15;;;;;;;3.20;2.30;;;;;;;11.96;49.23;100408.80;108554;1253;60257;-72
2023/04/17 17:18:45;;;;;;;4.40;2.30;;;;;;;11.91;49.17;100408.19;108631;1251;60463;-74
2023/04/17 17:21:14;;;;;;;3.20;2.70;;;;;;;11.86;49.64;100411.17;108752;1256;72953;-71
2023/04/17 17:23:42;;;;;;;3.70;2.30;;;;;;;11.82;49.76;100412.11;108489;1256;68425;-72
2023/04/17 17:26:10;;;;;;;3.70;3.00;;;;;;;11.78;49.79;100412.49;108650;1251;71444;-73
2023/04/17 17:28:38;;;;;;;3.30;2.30;;;;;;;11.74;49.88;100412.23;109210;1251;61990;-77
2023/04/17 17:31:06;;;;;;;4.40;2.80;;;;;;;11.71;50.08;100411.66;109140;1251;59548;-72
2023/04/17 17:33:35;;;;;;;4.40;2.60;;;;;;;11.67;50.28;100413.84;109060;1252;72629;-71
2023/04/17 17:36:03;;;;;;;4.30;2.60;;;;;;;11.64;50.26;100413.82;109279;1254;69422;-72
2023/04/17 17:38:31;;;;;;;3.80;2.30;;;;;;;11.61;50.19;100412.20;109293;1254;71772;-72
2023/04/17 17:41:03;;;;;;;4.10;2.60;;;;;;;11.58;50.34;100411.36;109169;1251;58971;-74
2023/04/17 17:43:42;;;;;;;6.90;2.80;;;;;;;11.57;50.31;100410.66;108895;1251;61252;-72
2023/04/17 17:46:22;;;;;;;5.50;2.90;;;;;;;11.55;50.70;100411.08;109046;1254;72961;-70
2023/04/17 17:49:10;;;;;;;4.50;3.10;;;;;;;11.54;50.65;100411.27;109110;1256;68823;-74
2023/04/17 17:51:48;;;;;;;6.40;3.10;;;;;;;11.51;50.88;100412.13;109692;1254;70772;-74
2023/04/17 17:54:35;;;;;;;5.00;3.20;;;;;;;11.51;50.94;100412.27;109613;1254;59671;-76
2023/04/17 17:57:14;;;;;;;4.70;3.10;;;;;;;11.51;51.19;100410.79;109890;1251;59043;-77
2023/04/17 18:00:02;;;;;;;;;;;;;;;;;;;;;
2023/04/17 18:02:39;;;;;;;6.00;3.50;;;;;;;11.48;51.30;100412.27;109697;1253;69064;-76
2023/04/17 18:05:11;;;;;;;5.60;3.00;;;;;;;11.47;51.36;100412.16;109688;1254;72606;-75
2023/04/17 18:07:42;;;;;;;4.30;3.10;;;;;;;11.46;51.40;100411.42;109253;1251;60546;-74
2023/04/17 18:10:10;;;;;;;7.00;3.20;;;;;;;11.47;51.69;100408.14;109533;1250;59347;-75
2023/04/17 18:12:38;;;;;;;5.50;2.90;;;;;;;11.46;51.69;100413.59;108438;1254;74177;-77
2023/04/17 18:15:07;;;;;;;4.60;3.30;;;;;;;11.44;51.78;100411.59;108607;1251;69323;-76
2023/04/17 18:17:35;;;;;;;4.50;3.60;;;;;;;11.43;51.93;100411.90;108406;1256;72469;-75
2023/04/17 18:20:04;;;;;;;4.30;3.40;;;;;;;11.41;51.99;100409.94;108471;1251;59246;-75
2023/04/17 18:22:34;;;;;;;4.40;3.10;;;;;;;11.40;51.86;100409.23;108225;1256;59632;-74
2023/04/17 18:25:02;;;;;;;4.50;3.30;;;;;;;11.38;52.01;100408.46;108434;1251;73884;-77
2023/04/17 18:27:31;;;;;;;4.40;3.10;;;;;;;11.37;52.01;100408.95;108488;1251;69189;-76
2023/04/17 18:29:59;;;;;;;6.30;4.00;;;;;;;11.35;52.15;100406.31;108610;1254;72639;-76
2023/04/17 18:32:29;;;;;;;4.60;3.10;;;;;;;11.34;52.25;100404.15;108792;1250;60431;-77
2023/04/17 18:34:58;;;;;;;3.80;2.80;;;;;;;11.33;52.48;100406.19;108614;1251;59646;-76
2023/04/17 18:37:28;;;;;;;6.30;3.10;;;;;;;11.31;52.35;100402.81;108393;1257;75064;-76
2023/04/17 18:39:56;;;;;;;3.80;3.00;;;;;;;11.30;52.51;100402.05;108828;1251;69599;-77
2023/04/17 18:42:25;;;;;;;3.30;2.90;;;;;;;11.28;52.52;100400.80;109472;1251;72283;-76
2023/04/17 18:45:56;;;;;;;4.30;3.10;;;;;;;11.28;52.74;100396.96;109233;1251;59442;-71
2023/04/17 18:48:35;;;;;;;4.10;3.00;;;;;;;11.27;52.63;100400.80;109278;1250;60328;-75
2023/04/17 18:51:27;;;;;;;3.60;2.90;;;;;;;11.26;52.83;100399.87;109082;1251;73896;-74
2023/04/17 18:54:15;;;;;;;6.40;2.80;;;;;;;11.25;52.80;100399.19;109125;1251;68964;-74
2023/04/17 18:57:04;;;;;;;4.10;2.90;;;;;;;11.25;52.82;100395.70;109143;1251;73136;-75
2023/04/17 18:59:40;;;;;;;4.50;3.00;;;;;;;11.25;52.66;100390.69;108778;1251;60094;-75
2023/04/17 19:02:22;;;;;;;4.30;2.80;;;;;;;11.25;52.83;100388.02;108874;1251;59254;-74
2023/04/17 19:05:20;;;;;;;7.40;3.20;;;;;;;11.25;52.88;100386.66;108299;1254;73512;-74
2023/04/17 19:08:03;;;;;;;4.60;3.30;;;;;;;11.19;52.80;100379.27;107925;1254;69315;-75
2023/04/17 19:10:48;;;;;;;5.30;3.10;;;;;;;11.15;52.98;100373.41;107090;1252;72645;-74
2023/04/17 19:13:23;;;;;;;4.00;2.80;;;;;;;11.19;52.97;100382.77;106304;1254;60556;-73
2023/04/17 19:16:05;;;;;;;3.60;2.80;;;;;;;11.17;52.88;100384.09;106246;1257;61070;-74
2023/04/17 19:19:09;;;;;;;5.90;2.90;;;;;;;11.13;53.32;100377.74;106158;1257;74734;-75
2023/04/17 19:21:48;;;;;;;5.50;2.80;;;;;;;11.11;53.32;100378.23;106244;1261;69461;-74
2023/04/17 19:24:24;;;;;;;4.30;3.10;;;;;;;11.09;53.13;100377.61;106054;1254;72169;-74
2023/04/17 19:27:01;;;;;;;5.60;2.80;;;;;;;11.06;53.21;100375.57;106231;1256;61614;-74
2023/04/17 19:29:38;;;;;;;6.50;3.80;;;;;;;11.02;53.43;100371.19;106067;1257;60558;-74
2023/04/17 19:32:19;;;;;;;5.40;3.20;;;;;;;10.97;53.39;100366.35;106109;1251;72867;-74
2023/04/17 19:34:57;;;;;;;4.30;3.20;;;;;;;10.94;53.48;100366.91;106029;1256;69974;-73
2023/04/17 19:38:11;;;;;;;5.10;3.10;;;;;;;10.89;53.52;100362.77;106140;1256;72330;-74
2023/04/17 19:41:16;;;;;;;3.90;2.80;;;;;;;10.85;53.50;100362.30;106053;1252;60561;-75
2023/04/17 19:43:52;;;;;;;4.30;3.30;;;;;;;10.81;53.58;100365.29;106150;1251;60906;-76
2023/04/17 19:46:39;;;;;;;4.10;2.80;;;;;;;10.78;53.64;100367.22;106066;1257;74796;-75
2023/04/17 19:49:08;;;;;;;4.70;2.70;;;;;;;10.75;53.85;100365.03;106176;1257;71127;-73
2023/04/17 19:51:37;;;;;;;4.20;2.70;;;;;;;10.72;54.00;100362.46;106532;1252;72107;-76
2023/04/17 19:54:21;;;;;;;5.00;3.50;;;;;;;10.70;53.87;100363.58;106075;1258;60531;-74
2023/04/17 19:57:07;;;;;;;5.40;3.70;;;;;;;10.66;54.32;100364.90;106052;1251;60690;-75
2023/04/17 19:59:39;;;;;;;4.50;3.30;;;;;;;10.62;54.14;100360.52;106051;1255;71867;-74
2023/04/17 20:02:19;;;;;;;5.00;3.40;;;;;;;10.57;54.43;100359.40;106274;1251;69422;-76
2023/04/17 20:04:52;;;;;;;6.20;3.80;;;;;;;10.56;54.63;100356.91;106025;1260;72714;-78
2023/04/17 20:08:07;;;;;;;6.60;3.80;;;;;;;10.53;54.51;100355.79;106168;1254;60454;-77
2023/04/17 20:10:59;;;;;;;;;;;;;;;10.50;54.67;100353.21;106880;1253;60383;-78
2023/04/17 20:13:51;;;;;;;6.80;4.00;;;;;;;10.47;54.71;100355.96;106842;1257;74010;-78
2023/04/17 20:16:30;;;;;;;7.90;3.60;;;;;;;10.44;54.94;100351.30;106053;1259;71554;-79
2023/04/17 20:19:12;;;;;;;6.10;3.70;;;;;;;10.41;55.08;100350.30;106319;1253;73501;-79
2023/04/17 20:22:05;;;;;;;6.00;4.00;;;;;;;10.39;55.16;100348.27;106328;1255;61078;-80
2023/04/17 20:24:52;;;;;;;6.50;3.80;;;;;;;10.37;55.07;100344.42;106265;1252;62086;-81
2023/04/17 20:27:36;;;;;;;6.00;3.90;;;;;;;10.35;55.00;100343.68;106099;1260;73293;-81
2023/04/17 20:30:07;;;;;;;6.40;4.00;;;;;;;10.32;55.22;100338.13;106200;1256;69168;-81
2023/04/17 20:32:35;;;;;;;5.80;4.40;;;;;;;10.32;55.12;100337.23;106092;1258;72411;-75
2023/04/17 20:35:04;;;;;;;6.80;5.10;;;;;;;10.31;55.39;100334.02;106322;1254;60431;-81
2023/04/17 20:37:32;;;;;;;8.40;5.70;;;;;;;10.29;55.38;100332.73;106246;1255;60493;-81
2023/04/17 20:40:00;;;;;;;12.80;6.50;;;;;;;10.28;55.61;100331.44;106143;1254;73753;-83
2023/04/17 20:42:29;;;;;;;13.00;6.70;;;;;;;10.27;55.83;100330.27;106116;1254;70258;-80
2023/04/17 20:44:58;;;;;;;10.10;6.10;;;;;;;10.24;55.72;100330.90;106686;1254;71644;-81
2023/04/17 20:47:26;;;;;;;6.90;6.10;;;;;;;10.21;55.58;100326.62;106742;1257;60494;-81
2023/04/17 20:49:55;;;;;;;9.10;5.30;;;;;;;10.19;55.79;100325.60;106994;1252;60588;-85
2023/04/17 20:52:23;;;;;;;6.50;4.80;;;;;;;10.16;55.82;100323.02;106886;1255;74410;-82
2023/04/17 20:54:51;;;;;;;6.60;5.40;;;;;;;10.14;56.24;100321.27;106887;1260;71124;-82
2023/04/17 20:57:19;;;;;;;9.30;6.00;;;;;;;10.13;56.34;100319.48;106960;1254;72481;-81
2023/04/17 20:59:49;;;;;;;8.90;6.00;;;;;;;10.11;56.23;100319.68;106799;1257;60545;-77